Time;durP1;ratioP1;P1;durP2;ratioP2;P2;SDS_P1;SDS_P2;PMS_P1;PMS_P2;Temp;Humidity;BMP_temperature;BMP_pressure;BME280_temperature;BME280_humidity;BME280_pressure;Samples;Min_cycle;Max_cycle;Signal;HPM_P1;HPM_P2
2023/01/28 00:00:46;;;;;;;11.95;8.23;;;;;;;;;;5080207;28;20032;-68
2023/01/28 00:03:11;;;;;;;15.45;8.68;;;;;;;;;;5078144;28;20036;-67
2023/01/28 00:05:37;;;;;;;13.73;8.82;;;;;;;;;;5078940;28;20087;-66
2023/01/28 00:08:02;;;;;;;14.85;9.38;;;;;;;;;;5076484;28;20404;-68
2023/01/28 00:10:28;;;;;;;16.20;9.60;;;;;;;;;;5076364;28;20040;-68
2023/01/28 00:12:53;;;;;;;14.80;9.00;;;;;;;;;;5079003;28;20047;-68
2023/01/28 00:15:19;;;;;;;14.32;9.13;;;;;;;;;;5077253;28;20043;-68
2023/01/28 00:17:44;;;;;;;13.18;8.98;;;;;;;;;;5077402;28;20044;-68
2023/01/28 00:20:10;;;;;;;17.98;9.93;;;;;;;;;;5081409;28;20028;-68
2023/01/28 00:22:36;;;;;;;14.65;8.90;;;;;;;;;;5079833;28;20039;-66
2023/01/28 00:25:02;;;;;;;12.93;8.38;;;;;;;;;;5073070;28;20039;-67
2023/01/28 00:27:27;;;;;;;13.27;9.02;;;;;;;;;;5082690;28;20055;-67
2023/01/28 00:29:53;;;;;;;13.93;8.00;;;;;;;;;;5092156;28;20407;-68
2023/01/28 00:32:19;;;;;;;15.68;9.25;;;;;;;;;;5096139;28;20040;-67
2023/01/28 00:34:45;;;;;;;16.70;9.30;;;;;;;;;;5076181;28;20042;-67
2023/01/28 00:37:10;;;;;;;13.00;8.57;;;;;;;;;;5058512;28;20044;-67
2023/01/28 00:39:36;;;;;;;14.95;8.18;;;;;;;;;;5062317;28;20036;-68
2023/01/28 00:42:02;;;;;;;14.50;8.38;;;;;;;;;;5079337;28;20055;-67
2023/01/28 00:44:28;;;;;;;12.82;7.78;;;;;;;;;;5065401;28;20474;-68
2023/01/28 00:46:53;;;;;;;14.32;8.35;;;;;;;;;;5076414;28;20486;-67
2023/01/28 00:49:21;;;;;;;12.23;7.25;;;;;;;;;;5060959;28;20113;-67
2023/01/28 00:51:47;;;;;;;15.45;8.38;;;;;;;;;;5080859;28;20487;-67
2023/01/28 00:54:15;;;;;;;12.05;7.15;;;;;;;;;;5076565;28;20135;-67
2023/01/28 00:56:40;;;;;;;12.18;8.07;;;;;;;;;;5076657;28;20151;-67
2023/01/28 00:59:06;;;;;;;11.43;7.97;;;;;;;;;;5077744;28;20064;-67
2023/01/28 01:01:31;;;;;;;11.23;7.22;;;;;;;;;;5081906;28;20028;-67
2023/01/28 01:04:06;;;;;;;11.35;7.35;;;;;;;;;;5077184;28;20565;-67
2023/01/28 01:06:36;;;;;;;10.88;7.55;;;;;;;;;;5076076;28;20035;-67
2023/01/28 01:09:04;;;;;;;12.83;7.80;;;;;;;;;;5062154;28;20040;-67
2023/01/28 01:11:30;;;;;;;12.77;7.57;;;;;;;;;;5068656;28;20040;-67
2023/01/28 01:13:58;;;;;;;9.93;7.03;;;;;;;;;;5073205;28;20097;-67
2023/01/28 01:16:27;;;;;;;9.52;6.97;;;;;;;;;;5064008;28;20046;-68
2023/01/28 01:18:54;;;;;;;10.05;7.28;;;;;;;;;;5048610;28;20036;-67
2023/01/28 01:21:22;;;;;;;12.15;7.80;;;;;;;;;;5078502;28;20044;-67
2023/01/28 01:23:48;;;;;;;12.17;7.83;;;;;;;;;;5073232;28;20135;-67
2023/01/28 01:26:14;;;;;;;11.77;7.30;;;;;;;;;;5064288;28;20121;-68
2023/01/28 01:28:41;;;;;;;11.43;6.55;;;;;;;;;;5075177;28;20082;-68
2023/01/28 01:31:13;;;;;;;12.15;7.50;;;;;;;;;;5074451;28;20611;-67
2023/01/28 01:33:43;;;;;;;11.05;7.13;;;;;;;;;;5080815;28;20566;-67
2023/01/28 01:36:10;;;;;;;11.20;7.07;;;;;;;;;;5062988;28;20032;-67
2023/01/28 01:38:35;;;;;;;12.55;7.28;;;;;;;;;;5077258;28;20028;-68
2023/01/28 01:41:01;;;;;;;10.20;6.93;;;;;;;;;;5067539;28;20486;-67
2023/01/28 01:43:48;;;;;;;10.57;6.93;;;;;;;;;;5056594;28;20063;-67
2023/01/28 01:46:17;;;;;;;10.30;6.85;;;;;;;;;;5083878;28;20071;-68
2023/01/28 01:48:43;;;;;;;;;;;;;;;;;;5071953;28;20060;-67
2023/01/28 01:51:34;;;;;;;9.88;6.88;;;;;;;;;;5078499;28;19970;-67
2023/01/28 01:54:01;;;;;;;11.20;6.45;;;;;;;;;;5070656;28;20063;-68
2023/01/28 01:56:32;;;;;;;11.30;7.35;;;;;;;;;;5078809;28;20439;-68
2023/01/28 01:58:58;;;;;;;7.70;5.80;;;;;;;;;;5065763;28;20032;-68
2023/01/28 02:01:28;;;;;;;9.50;6.70;;;;;;;;;;5078468;28;20494;-68
2023/01/28 02:04:02;;;;;;;12.13;7.25;;;;;;;;;;5071632;28;20128;-68
2023/01/28 02:06:28;;;;;;;10.77;7.15;;;;;;;;;;5081428;28;20038;-68
2023/01/28 02:08:54;;;;;;;10.43;7.07;;;;;;;;;;5085086;28;20058;-69
2023/01/28 02:11:21;;;;;;;10.38;6.80;;;;;;;;;;5068622;28;20318;-69
2023/01/28 02:13:51;;;;;;;11.52;6.85;;;;;;;;;;5083154;28;20592;-69
2023/01/28 02:16:17;;;;;;;16.35;7.78;;;;;;;;;;5066287;28;20062;-66
2023/01/28 02:18:43;;;;;;;12.90;7.75;;;;;;;;;;5068728;28;20036;-68
2023/01/28 02:21:24;;;;;;;11.40;7.35;;;;;;;;;;5063823;28;20048;-68
2023/01/28 02:24:27;;;;;;;10.77;6.97;;;;;;;;;;5071905;28;20047;-66
2023/01/28 02:27:18;;;;;;;11.55;6.57;;;;;;;;;;5081441;28;20045;-68
2023/01/28 02:30:02;;;;;;;10.18;6.65;;;;;;;;;;5061746;28;20055;-68
2023/01/28 02:32:36;;;;;;;10.98;7.22;;;;;;;;;;5064727;28;20081;-68
2023/01/28 02:35:14;;;;;;;13.73;6.70;;;;;;;;;;5069766;28;20028;-68
2023/01/28 02:37:52;;;;;;;11.23;6.50;;;;;;;;;;5063267;28;20043;-68
2023/01/28 02:40:23;;;;;;;10.43;7.03;;;;;;;;;;5080714;28;20336;-68
2023/01/28 02:42:50;;;;;;;10.68;6.38;;;;;;;;;;5064059;28;20113;-68
2023/01/28 02:47:56;;;;;;;11.45;7.07;;;;;;;;;;5067064;28;20170;-68
2023/01/28 02:48:16;;;;;;;8.38;6.38;;;;;;;;;;5076723;28;20071;-68
2023/01/28 02:50:58;;;;;;;11.27;6.63;;;;;;;;;;5079161;28;20046;-68
2023/01/28 02:53:49;;;;;;;10.23;7.10;;;;;;;;;;5058471;28;20182;-68
2023/01/28 02:56:18;;;;;;;9.20;6.35;;;;;;;;;;5055939;28;20131;-68
2023/01/28 02:59:29;;;;;;;11.73;6.57;;;;;;;;;;5081759;28;20047;-68
2023/01/28 03:02:27;;;;;;;10.10;6.90;;;;;;;;;;5064685;28;20044;-68
2023/01/28 03:05:02;;;;;;;10.35;6.45;;;;;;;;;;5061333;28;20032;-68
2023/01/28 03:07:30;;;;;;;9.15;6.82;;;;;;;;;;5063845;28;20052;-68
2023/01/28 03:10:03;;;;;;;10.73;7.18;;;;;;;;;;5063700;28;20032;-68
2023/01/28 03:38:16;;;;;;;11.70;7.68;;;;;;;;;;5063017;28;20089;-67
2023/01/28 03:40:57;;;;;;;11.23;7.25;;;;;;;;;;5069780;28;20032;-67
2023/01/28 03:43:23;;;;;;;13.90;7.95;;;;;;;;;;5054334;28;20032;-67
2023/01/28 03:45:52;;;;;;;11.38;7.75;;;;;;;;;;5075944;28;20029;-67
2023/01/28 03:48:19;;;;;;;11.63;8.07;;;;;;;;;;5068378;28;20042;-66
2023/01/28 03:50:46;;;;;;;18.88;9.25;;;;;;;;;;5065974;28;20032;-67
2023/01/28 03:53:14;;;;;;;12.60;8.00;;;;;;;;;;5070226;28;20034;-67
2023/01/28 03:55:49;;;;;;;12.73;8.43;;;;;;;;;;5060082;28;20059;-69
2023/01/28 03:58:16;;;;;;;15.10;8.20;;;;;;;;;;5079234;28;20028;-67
2023/01/28 04:00:42;;;;;;;12.43;8.00;;;;;;;;;;5059032;28;20499;-67
2023/01/28 04:03:15;;;;;;;12.88;7.75;;;;;;;;;;5076255;28;20052;-67
2023/01/28 04:05:56;;;;;;;14.35;7.70;;;;;;;;;;5063670;28;20032;-66
2023/01/28 04:08:23;;;;;;;13.63;7.90;;;;;;;;;;5061316;28;20063;-68
2023/01/28 04:11:18;;;;;;;11.15;7.93;;;;;;;;;;5058074;28;20072;-68
2023/01/28 04:13:47;;;;;;;12.90;7.80;;;;;;;;;;5083205;28;20051;-66
2023/01/28 04:16:16;;;;;;;12.40;7.78;;;;;;;;;;5060760;28;20097;-68
2023/01/28 04:18:42;;;;;;;11.25;7.50;;;;;;;;;;5061363;28;20032;-68
2023/01/28 04:21:08;;;;;;;11.77;7.63;;;;;;;;;;5074971;28;20391;-68
2023/01/28 04:23:34;;;;;;;15.98;8.77;;;;;;;;;;5068291;28;20042;-68
2023/01/28 04:26:03;;;;;;;11.15;7.80;;;;;;;;;;5074674;28;20035;-68
2023/01/28 04:28:29;;;;;;;12.32;7.97;;;;;;;;;;5056011;28;20665;-68
2023/01/28 04:30:55;;;;;;;11.38;8.05;;;;;;;;;;5057537;28;20036;-68
2023/01/28 04:33:39;;;;;;;14.52;8.68;;;;;;;;;;5079340;28;20047;-68
2023/01/28 04:36:14;;;;;;;13.85;7.72;;;;;;;;;;5057006;28;20051;-68
2023/01/28 04:38:44;;;;;;;11.40;7.57;;;;;;;;;;5066482;28;20055;-68
2023/01/28 04:41:40;;;;;;;10.73;7.22;;;;;;;;;;5079434;28;20085;-68
2023/01/28 04:44:17;;;;;;;11.55;7.53;;;;;;;;;;5063010;28;20603;-68
2023/01/28 04:47:15;;;;;;;14.68;8.27;;;;;;;;;;5060630;28;20036;-68
2023/01/28 04:49:50;;;;;;;12.23;8.40;;;;;;;;;;5060542;28;20035;-68
2023/01/28 04:52:26;;;;;;;14.13;8.40;;;;;;;;;;5064622;28;20504;-69
2023/01/28 04:55:15;;;;;;;12.68;8.23;;;;;;;;;;5079054;28;20028;-68
2023/01/28 04:57:41;;;;;;;13.00;8.30;;;;;;;;;;5073946;28;20036;-68
2023/01/28 05:00:08;;;;;;;12.73;7.72;;;;;;;;;;5070738;28;20045;-69
2023/01/28 05:02:33;;;;;;;12.52;8.32;;;;;;;;;;5077109;28;20095;-67
2023/01/28 05:05:03;;;;;;;13.50;8.52;;;;;;;;;;5070140;28;20311;-69
2023/01/28 05:07:51;;;;;;;14.35;8.93;;;;;;;;;;5083220;28;20043;-69
2023/01/28 05:10:18;;;;;;;13.88;8.75;;;;;;;;;;5077318;28;20461;-68
2023/01/28 05:12:45;;;;;;;12.98;8.05;;;;;;;;;;5046776;28;20131;-68
2023/01/28 05:15:11;;;;;;;12.23;7.88;;;;;;;;;;5066465;28;20039;-69
2023/01/28 05:17:36;;;;;;;11.90;8.52;;;;;;;;;;5060310;28;20036;-67
2023/01/28 05:20:03;;;;;;;12.18;8.02;;;;;;;;;;5074663;28;20056;-67
2023/01/28 05:22:29;;;;;;;14.43;9.23;;;;;;;;;;5079883;28;20032;-67
2023/01/28 05:25:13;;;;;;;14.75;9.23;;;;;;;;;;5076644;28;20081;-69
2023/01/28 05:27:39;;;;;;;14.48;9.18;;;;;;;;;;5065069;28;20035;-68
2023/01/28 05:30:05;;;;;;;16.00;9.18;;;;;;;;;;5061071;28;20626;-68
2023/01/28 05:32:31;;;;;;;11.63;8.32;;;;;;;;;;5059117;28;20043;-68
2023/01/28 05:34:57;;;;;;;13.02;9.00;;;;;;;;;;5078719;28;20075;-68
2023/01/28 05:37:24;;;;;;;13.25;9.10;;;;;;;;;;5068416;28;20041;-67
2023/01/28 05:39:53;;;;;;;14.45;9.60;;;;;;;;;;5069256;28;20040;-68
2023/01/28 05:42:19;;;;;;;12.40;8.27;;;;;;;;;;5080656;28;20040;-68
2023/01/28 05:44:46;;;;;;;14.75;9.35;;;;;;;;;;5080578;28;20480;-68
2023/01/28 05:47:34;;;;;;;12.50;8.90;;;;;;;;;;5059203;28;20037;-69
2023/01/28 05:50:18;;;;;;;14.93;8.68;;;;;;;;;;5081490;28;20072;-69
2023/01/28 05:53:07;;;;;;;14.70;9.02;;;;;;;;;;5077376;28;20544;-68
2023/01/28 05:55:34;;;;;;;12.13;8.35;;;;;;;;;;5069187;28;20055;-68
2023/01/28 05:57:59;;;;;;;14.02;8.57;;;;;;;;;;5065511;28;20380;-68
2023/01/28 06:00:25;;;;;;;16.38;9.20;;;;;;;;;;5064581;28;20046;-69
2023/01/28 06:02:51;;;;;;;12.88;8.55;;;;;;;;;;5080867;28;20077;-69
2023/01/28 06:05:18;;;;;;;14.75;8.95;;;;;;;;;;5069640;28;20040;-67
2023/01/28 06:07:45;;;;;;;12.20;8.52;;;;;;;;;;5068902;28;20101;-68
2023/01/28 06:10:11;;;;;;;14.02;9.25;;;;;;;;;;5063784;28;20380;-68
2023/01/28 06:12:38;;;;;;;13.93;8.73;;;;;;;;;;5068021;28;20039;-67
2023/01/28 06:15:26;;;;;;;13.10;8.90;;;;;;;;;;5078863;28;20036;-68
2023/01/28 06:18:17;;;;;;;15.90;9.02;;;;;;;;;;5040601;28;20045;-67
2023/01/28 06:20:43;;;;;;;13.02;8.63;;;;;;;;;;5066675;28;20077;-67
2023/01/28 06:23:09;;;;;;;13.77;8.13;;;;;;;;;;5068208;28;20035;-67
2023/01/28 06:25:35;;;;;;;11.15;8.13;;;;;;;;;;5077918;28;20551;-67
2023/01/28 06:28:05;;;;;;;12.45;9.20;;;;;;;;;;5068542;28;20031;-68
2023/01/28 06:30:30;;;;;;;13.63;8.77;;;;;;;;;;5083869;28;20069;-67
2023/01/28 06:32:56;;;;;;;13.65;8.55;;;;;;;;;;5080343;28;20027;-68
2023/01/28 06:35:22;;;;;;;15.40;9.20;;;;;;;;;;5079869;28;20044;-69
2023/01/28 06:37:48;;;;;;;16.38;10.07;;;;;;;;;;5079319;28;20077;-68
2023/01/28 06:40:13;;;;;;;14.68;8.85;;;;;;;;;;5081154;28;20040;-68
2023/01/28 06:42:39;;;;;;;13.80;8.50;;;;;;;;;;5081720;28;20041;-69
2023/01/28 06:45:05;;;;;;;13.45;9.55;;;;;;;;;;5078202;28;20032;-67
2023/01/28 06:47:30;;;;;;;14.93;10.15;;;;;;;;;;5080805;28;20043;-67
2023/01/28 06:49:56;;;;;;;17.20;10.02;;;;;;;;;;5079152;28;20029;-67
2023/01/28 06:52:21;;;;;;;10.82;8.23;;;;;;;;;;5080229;28;20039;-66
2023/01/28 06:54:47;;;;;;;14.40;9.38;;;;;;;;;;5080186;28;20031;-67
2023/01/28 06:57:13;;;;;;;14.13;9.60;;;;;;;;;;5083292;28;20434;-66
2023/01/28 06:59:38;;;;;;;15.85;9.75;;;;;;;;;;5078773;28;20090;-66
2023/01/28 07:02:04;;;;;;;14.82;9.13;;;;;;;;;;5079789;28;20040;-67
2023/01/28 07:04:30;;;;;;;15.90;9.15;;;;;;;;;;5080793;28;20043;-67
2023/01/28 07:06:56;;;;;;;17.10;8.95;;;;;;;;;;5079875;28;20060;-66
2023/01/28 07:09:21;;;;;;;13.43;8.95;;;;;;;;;;5082375;28;20071;-67
2023/01/28 07:11:47;;;;;;;13.98;8.88;;;;;;;;;;5078174;28;20063;-67
2023/01/28 07:14:12;;;;;;;14.63;9.07;;;;;;;;;;5076525;28;20041;-67
2023/01/28 07:16:38;;;;;;;11.73;8.88;;;;;;;;;;5077999;28;20086;-66
2023/01/28 07:19:03;;;;;;;12.35;8.95;;;;;;;;;;5076509;28;20063;-67
2023/01/28 07:21:29;;;;;;;14.80;9.23;;;;;;;;;;5080788;28;20067;-67
2023/01/28 07:23:55;;;;;;;13.15;8.60;;;;;;;;;;5078613;28;20073;-67
2023/01/28 07:26:22;;;;;;;14.13;9.23;;;;;;;;;;5078901;28;20040;-67
2023/01/28 07:28:48;;;;;;;14.35;8.75;;;;;;;;;;5082827;28;20503;-67
2023/01/28 07:31:13;;;;;;;17.02;9.70;;;;;;;;;;5081022;28;20049;-67
2023/01/28 07:33:39;;;;;;;12.77;9.30;;;;;;;;;;5078038;28;20089;-67
2023/01/28 07:36:05;;;;;;;13.05;9.05;;;;;;;;;;5081309;28;20398;-67
2023/01/28 07:38:30;;;;;;;14.77;9.95;;;;;;;;;;5077778;28;20138;-67
2023/01/28 07:40:56;;;;;;;18.90;9.13;;;;;;;;;;5079307;28;20037;-67
2023/01/28 07:43:21;;;;;;;17.17;10.00;;;;;;;;;;5077626;28;20036;-67
2023/01/28 07:45:49;;;;;;;18.40;9.30;;;;;;;;;;5062719;28;20043;-66
2023/01/28 07:48:14;;;;;;;16.15;9.73;;;;;;;;;;5082631;28;20627;-67
2023/01/28 07:50:40;;;;;;;15.40;9.52;;;;;;;;;;5074585;28;20455;-68
2023/01/28 07:53:10;;;;;;;14.13;9.68;;;;;;;;;;5077285;28;20073;-67
2023/01/28 07:55:36;;;;;;;;;;;;;;;;;;5079621;28;20031;-67
2023/01/28 07:58:03;;;;;;;15.88;9.60;;;;;;;;;;5081879;28;19955;-67
2023/01/28 08:00:31;;;;;;;18.20;9.90;;;;;;;;;;5078084;28;20101;-67
2023/01/28 08:02:58;;;;;;;15.75;9.63;;;;;;;;;;5077873;28;20024;-67
2023/01/28 08:05:26;;;;;;;14.15;9.65;;;;;;;;;;5079336;28;20557;-66
2023/01/28 08:07:51;;;;;;;14.65;9.23;;;;;;;;;;5074681;28;20105;-67
2023/01/28 08:10:18;;;;;;;16.38;10.73;;;;;;;;;;5078987;28;20492;-66
2023/01/28 08:12:55;;;;;;;15.00;9.90;;;;;;;;;;5081531;28;20466;-67
2023/01/28 08:15:21;;;;;;;13.38;9.45;;;;;;;;;;5070544;28;20379;-67
2023/01/28 08:17:47;;;;;;;14.02;9.80;;;;;;;;;;5079251;28;20043;-67
2023/01/28 08:20:13;;;;;;;13.52;9.77;;;;;;;;;;5080149;28;20035;-66
2023/01/28 08:22:38;;;;;;;13.13;9.60;;;;;;;;;;5077966;28;20028;-66
2023/01/28 08:25:04;;;;;;;14.30;9.63;;;;;;;;;;5075747;28;20047;-65
2023/01/28 08:27:30;;;;;;;14.43;9.85;;;;;;;;;;5077990;28;20047;-65
2023/01/28 08:29:56;;;;;;;15.02;10.07;;;;;;;;;;5057853;28;20032;-65
2023/01/28 08:32:21;;;;;;;15.00;10.05;;;;;;;;;;5077288;28;20028;-66
2023/01/28 08:34:47;;;;;;;15.93;9.85;;;;;;;;;;5073419;28;20036;-66
2023/01/28 08:37:12;;;;;;;15.50;9.63;;;;;;;;;;5064606;28;20526;-65
2023/01/28 08:39:38;;;;;;;14.73;9.57;;;;;;;;;;5077707;28;20038;-66
2023/01/28 08:42:05;;;;;;;63.63;21.33;;;;;;;;;;5060105;28;20035;-66
2023/01/28 08:44:32;;;;;;;28.95;12.23;;;;;;;;;;5073546;28;20071;-66
2023/01/28 08:46:57;;;;;;;20.67;10.77;;;;;;;;;;5056855;28;20036;-67
2023/01/28 08:49:23;;;;;;;13.80;9.65;;;;;;;;;;5071241;28;20097;-68
2023/01/28 08:51:49;;;;;;;15.15;9.73;;;;;;;;;;5073751;28;20032;-65
2023/01/28 08:54:14;;;;;;;14.77;9.98;;;;;;;;;;5076265;28;20039;-66
2023/01/28 08:56:43;;;;;;;16.45;9.60;;;;;;;;;;5063841;28;20046;-65
2023/01/28 08:59:10;;;;;;;15.05;10.32;;;;;;;;;;5078139;28;20033;-64
2023/01/28 09:01:36;;;;;;;14.60;9.55;;;;;;;;;;5072465;28;20032;-65
2023/01/28 09:04:02;;;;;;;15.82;9.77;;;;;;;;;;5071658;28;20048;-65
2023/01/28 09:06:28;;;;;;;15.82;10.95;;;;;;;;;;5079603;28;20154;-65
2023/01/28 09:08:58;;;;;;;15.43;9.73;;;;;;;;;;5074534;28;20745;-65
2023/01/28 09:11:24;;;;;;;17.42;10.30;;;;;;;;;;5080206;28;20036;-65
2023/01/28 09:13:50;;;;;;;13.45;9.95;;;;;;;;;;5076752;28;20030;-66
2023/01/28 09:16:16;;;;;;;15.00;9.00;;;;;;;;;;5078357;28;20111;-65
2023/01/28 09:18:41;;;;;;;18.15;10.65;;;;;;;;;;5082309;28;20036;-65
2023/01/28 09:21:07;;;;;;;14.38;9.73;;;;;;;;;;5080013;28;20063;-66
2023/01/28 09:23:36;;;;;;;13.60;9.75;;;;;;;;;;5083550;28;20098;-64
2023/01/28 09:26:04;;;;;;;13.95;9.73;;;;;;;;;;5075039;28;20067;-65
2023/01/28 09:28:30;;;;;;;16.75;10.40;;;;;;;;;;5077989;28;20047;-65
2023/01/28 09:31:09;;;;;;;13.23;8.93;;;;;;;;;;5076082;28;20042;-63
2023/01/28 09:33:37;;;;;;;15.52;10.07;;;;;;;;;;5075705;28;20939;-65
2023/01/28 09:36:05;;;;;;;14.02;9.73;;;;;;;;;;5080270;28;20028;-65
2023/01/28 09:38:31;;;;;;;14.82;9.80;;;;;;;;;;5088583;28;20071;-65
2023/01/28 09:40:57;;;;;;;12.68;9.15;;;;;;;;;;5084463;28;20073;-65
2023/01/28 09:43:35;;;;;;;14.10;8.75;;;;;;;;;;5072120;28;20040;-64
2023/01/28 09:46:07;;;;;;;14.10;9.45;;;;;;;;;;5073888;28;20028;-65
2023/01/28 09:48:47;;;;;;;13.68;9.07;;;;;;;;;;5071498;28;20816;-64
2023/01/28 09:51:32;;;;;;;14.05;9.52;;;;;;;;;;5074154;28;20029;-64
2023/01/28 09:54:03;;;;;;;15.38;9.45;;;;;;;;;;5073951;28;20036;-67
2023/01/28 09:56:38;;;;;;;14.35;9.68;;;;;;;;;;5047321;28;20036;-67
2023/01/28 09:59:17;;;;;;;13.27;8.57;;;;;;;;;;5072472;28;20418;-67
2023/01/28 10:01:53;;;;;;;15.85;9.68;;;;;;;;;;5055039;28;20124;-66
2023/01/28 10:04:31;;;;;;;13.48;8.95;;;;;;;;;;5078475;28;20459;-66
2023/01/28 10:07:11;;;;;;;14.50;9.18;;;;;;;;;;5073708;28;20039;-66
2023/01/28 10:09:49;;;;;;;14.02;9.63;;;;;;;;;;5076325;28;20123;-65
2023/01/28 10:12:31;;;;;;;18.65;9.52;;;;;;;;;;5078414;28;20043;-66
2023/01/28 10:15:02;;;;;;;12.43;8.43;;;;;;;;;;5074810;28;20024;-66
2023/01/28 10:17:34;;;;;;;14.85;9.60;;;;;;;;;;5070008;28;20046;-66
2023/01/28 10:20:05;;;;;;;12.90;8.63;;;;;;;;;;5071329;28;20095;-65
2023/01/28 10:22:38;;;;;;;14.55;9.95;;;;;;;;;;5070471;28;20108;-64
2023/01/28 10:25:14;;;;;;;24.27;12.65;;;;;;;;;;5081204;28;20024;-65
2023/01/28 10:27:40;;;;;;;16.58;10.35;;;;;;;;;;5081834;28;20063;-65
2023/01/28 10:30:27;;;;;;;12.65;8.43;;;;;;;;;;5047357;28;20060;-64
2023/01/28 10:33:19;;;;;;;11.10;7.15;;;;;;;;;;5079608;28;20040;-66
2023/01/28 10:35:46;;;;;;;15.85;10.10;;;;;;;;;;5083446;28;20024;-65
2023/01/28 10:38:15;;;;;;;14.70;8.75;;;;;;;;;;5079732;28;20406;-64
2023/01/28 10:40:41;;;;;;;14.38;8.63;;;;;;;;;;5083134;28;20044;-64
2023/01/28 10:43:07;;;;;;;13.43;9.15;;;;;;;;;;5080718;28;20032;-66
2023/01/28 10:45:53;;;;;;;14.57;9.13;;;;;;;;;;5081041;28;20067;-65
2023/01/28 10:48:23;;;;;;;13.98;9.00;;;;;;;;;;5080398;28;20074;-65
2023/01/28 10:50:55;;;;;;;14.95;9.65;;;;;;;;;;5081777;28;20040;-66
2023/01/28 10:53:33;;;;;;;14.82;9.70;;;;;;;;;;5080870;28;20068;-66
2023/01/28 10:56:00;;;;;;;14.32;9.60;;;;;;;;;;5079878;28;20082;-66
2023/01/28 10:58:27;;;;;;;15.25;10.15;;;;;;;;;;5063410;28;20066;-66
2023/01/28 11:00:56;;;;;;;15.90;9.35;;;;;;;;;;5080286;28;20044;-64
2023/01/28 11:03:26;;;;;;;15.40;9.05;;;;;;;;;;5064222;28;20086;-66
2023/01/28 11:05:55;;;;;;;;;;;;;;;;;;5058830;28;20033;-64
2023/01/28 11:08:23;;;;;;;14.70;10.68;;;;;;;;;;5079122;28;19912;-66
2023/01/28 11:10:49;;;;;;;16.33;10.00;;;;;;;;;;5073210;28;20029;-66
2023/01/28 11:13:26;;;;;;;14.23;8.98;;;;;;;;;;5082311;28;20063;-66
2023/01/28 11:16:03;;;;;;;13.45;9.38;;;;;;;;;;5078299;28;20036;-66
2023/01/28 11:18:33;;;;;;;14.80;9.75;;;;;;;;;;5079837;28;20082;-66
2023/01/28 11:21:06;;;;;;;17.20;9.52;;;;;;;;;;5075575;28;20040;-66
2023/01/28 11:23:35;;;;;;;13.57;9.98;;;;;;;;;;5081079;28;20119;-66
2023/01/28 11:26:03;;;;;;;15.63;9.43;;;;;;;;;;5080077;28;20036;-66
2023/01/28 11:28:29;;;;;;;14.90;9.30;;;;;;;;;;5084455;28;20028;-65
2023/01/28 11:30:57;;;;;;;18.73;10.55;;;;;;;;;;5079188;28;20088;-65
2023/01/28 11:33:43;;;;;;;16.58;10.27;;;;;;;;;;5080665;28;20036;-67
2023/01/28 11:36:16;;;;;;;19.25;11.05;;;;;;;;;;5080189;28;20141;-66
2023/01/28 11:38:54;;;;;;;18.33;10.60;;;;;;;;;;5080264;28;20126;-65
2023/01/28 11:41:37;;;;;;;18.02;10.95;;;;;;;;;;5082563;28;20129;-66
2023/01/28 11:44:20;;;;;;;18.55;10.73;;;;;;;;;;5083373;28;21154;-65
2023/01/28 11:47:04;;;;;;;18.42;11.13;;;;;;;;;;5083293;28;20127;-65
2023/01/28 11:49:57;;;;;;;16.60;10.25;;;;;;;;;;5086593;28;20076;-65
2023/01/28 11:52:51;;;;;;;16.83;10.82;;;;;;;;;;5078318;28;20405;-65
2023/01/28 11:55:26;;;;;;;18.65;9.95;;;;;;;;;;5082342;28;20064;-65
2023/01/28 11:58:13;;;;;;;15.10;9.40;;;;;;;;;;5079329;28;20027;-65
2023/01/28 12:00:43;;;;;;;17.80;10.38;;;;;;;;;;5078092;28;20124;-66
2023/01/28 12:03:30;;;;;;;18.02;10.90;;;;;;;;;;5078128;28;20028;-66
2023/01/28 12:06:10;;;;;;;18.30;11.00;;;;;;;;;;5077363;28;20040;-65
2023/01/28 12:09:05;;;;;;;18.50;10.88;;;;;;;;;;5077298;28;20044;-65
2023/01/28 12:12:10;;;;;;;17.15;10.50;;;;;;;;;;5067133;28;20043;-65
2023/01/28 12:14:43;;;;;;;14.30;8.95;;;;;;;;;;5077835;28;20040;-65
2023/01/28 12:17:32;;;;;;;24.15;11.25;;;;;;;;;;5082971;28;20028;-65
2023/01/28 12:20:27;;;;;;;15.85;10.20;;;;;;;;;;5083291;28;20036;-65
2023/01/28 12:23:07;;;;;;;18.13;10.02;;;;;;;;;;5087356;28;20043;-65
2023/01/28 12:25:42;;;;;;;20.90;10.48;;;;;;;;;;5073925;28;20045;-65
2023/01/28 12:28:41;;;;;;;15.65;10.57;;;;;;;;;;5081752;28;20526;-65
2023/01/28 12:31:31;;;;;;;15.20;9.40;;;;;;;;;;5081367;28;20040;-65
2023/01/28 12:34:03;;;;;;;19.10;10.20;;;;;;;;;;5073704;28;20036;-65
2023/01/28 12:36:59;;;;;;;17.42;9.27;;;;;;;;;;5078415;28;20127;-65
2023/01/28 12:40:15;;;;;;;17.60;10.02;;;;;;;;;;5083836;28;20052;-65
2023/01/28 12:42:47;;;;;;;17.35;9.23;;;;;;;;;;5027376;28;20079;-65
2023/01/28 12:45:24;;;;;;;14.43;9.80;;;;;;;;;;5031196;28;20069;-65
2023/01/28 12:47:56;;;;;;;17.50;9.48;;;;;;;;;;5024425;28;20031;-65
2023/01/28 12:50:32;;;;;;;17.80;9.90;;;;;;;;;;5022274;28;20029;-65
2023/01/28 12:53:02;;;;;;;20.17;10.75;;;;;;;;;;5034475;28;20052;-65
2023/01/28 12:55:47;;;;;;;19.08;10.43;;;;;;;;;;5025704;28;20064;-65
2023/01/28 12:58:23;;;;;;;19.13;10.82;;;;;;;;;;5022796;28;20678;-65
2023/01/28 13:00:55;;;;;;;15.05;9.43;;;;;;;;;;5033121;28;20744;-65
2023/01/28 13:03:29;;;;;;;17.98;9.65;;;;;;;;;;5027402;28;20045;-65
2023/01/28 13:05:59;;;;;;;18.42;11.10;;;;;;;;;;5009484;28;20108;-65
2023/01/28 13:08:28;;;;;;;19.02;10.85;;;;;;;;;;5024737;28;20568;-65
2023/01/28 13:10:58;;;;;;;19.40;12.35;;;;;;;;;;5024878;28;20054;-65
2023/01/28 13:13:37;;;;;;;20.50;11.13;;;;;;;;;;5024366;28;20072;-65
2023/01/28 13:16:06;;;;;;;19.10;11.90;;;;;;;;;;5031826;28;20025;-65
2023/01/28 13:18:47;;;;;;;19.63;11.52;;;;;;;;;;5060796;28;20044;-65
2023/01/28 13:21:24;;;;;;;21.58;12.65;;;;;;;;;;5082388;28;20513;-65
2023/01/28 13:24:03;;;;;;;23.30;14.55;;;;;;;;;;5081253;28;20029;-65
2023/01/28 13:26:45;;;;;;;20.20;12.10;;;;;;;;;;5079916;28;20086;-65
2023/01/28 13:29:13;;;;;;;19.08;12.13;;;;;;;;;;5078030;28;20677;-65
2023/01/28 13:31:45;;;;;;;23.65;13.50;;;;;;;;;;5083790;28;20040;-65
2023/01/28 13:34:39;;;;;;;20.52;13.65;;;;;;;;;;5082541;28;20031;-65
2023/01/28 13:37:29;;;;;;;18.60;11.65;;;;;;;;;;5081362;28;20032;-65
2023/01/28 13:40:13;;;;;;;16.45;10.57;;;;;;;;;;5077633;28;20067;-65
2023/01/28 13:42:40;;;;;;;19.95;11.13;;;;;;;;;;5072507;28;20040;-65
2023/01/28 13:45:14;;;;;;;17.95;10.85;;;;;;;;;;5080004;28;20423;-65
2023/01/28 13:47:45;;;;;;;17.85;10.02;;;;;;;;;;5080878;28;20036;-64
2023/01/28 13:50:39;;;;;;;19.17;11.35;;;;;;;;;;5075236;28;20028;-65
2023/01/28 13:53:37;;;;;;;15.98;10.57;;;;;;;;;;5069871;28;20048;-65
2023/01/28 13:56:09;;;;;;;16.63;8.82;;;;;;;;;;5079128;28;20082;-65
2023/01/28 13:59:03;;;;;;;12.80;8.73;;;;;;;;;;5083502;28;20036;-65
2023/01/28 14:01:47;;;;;;;13.85;8.25;;;;;;;;;;5074373;28;20619;-65
2023/01/28 14:04:37;;;;;;;13.50;8.75;;;;;;;;;;5083487;28;20036;-65
2023/01/28 14:07:28;;;;;;;12.52;8.32;;;;;;;;;;5078371;28;20035;-65
2023/01/28 14:10:02;;;;;;;10.13;7.07;;;;;;;;;;5080833;28;20036;-66
2023/01/28 14:12:52;;;;;;;10.00;7.43;;;;;;;;;;5084802;28;20730;-65
2023/01/28 14:15:48;;;;;;;14.32;8.43;;;;;;;;;;5080919;28;20040;-64
2023/01/28 14:18:18;;;;;;;11.95;9.02;;;;;;;;;;5085684;28;20100;-66
2023/01/28 14:20:44;;;;;;;13.68;7.82;;;;;;;;;;5085655;28;20115;-65
2023/01/28 14:23:31;;;;;;;10.85;7.40;;;;;;;;;;5084102;28;20054;-65
2023/01/28 14:26:42;;;;;;;11.98;7.40;;;;;;;;;;5075067;28;20371;-65
2023/01/28 14:29:25;;;;;;;11.02;7.63;;;;;;;;;;5081175;28;20040;-65
2023/01/28 14:31:52;;;;;;;12.80;8.20;;;;;;;;;;5075039;28;20028;-66
2023/01/28 14:34:29;;;;;;;13.15;7.75;;;;;;;;;;5075413;28;20086;-66
2023/01/28 14:37:03;;;;;;;17.25;12.25;;;;;;;;;;5079045;28;20039;-66
2023/01/28 14:39:32;;;;;;;13.48;8.05;;;;;;;;;;5076732;28;20071;-65
2023/01/28 14:42:01;;;;;;;9.93;7.30;;;;;;;;;;5080713;28;22290;-66
2023/01/28 14:44:36;;;;;;;10.40;6.80;;;;;;;;;;5079956;28;20127;-66
2023/01/28 14:47:33;;;;;;;10.07;7.13;;;;;;;;;;5077535;28;20056;-66
2023/01/28 14:50:46;;;;;;;8.68;6.38;;;;;;;;;;5077766;28;20052;-65
2023/01/28 14:53:27;;;;;;;18.25;7.15;;;;;;;;;;5074081;28;20048;-66
2023/01/28 14:56:11;;;;;;;10.68;7.07;;;;;;;;;;5077789;28;20040;-66
2023/01/28 14:58:45;;;;;;;12.70;8.55;;;;;;;;;;5077499;28;20123;-66
2023/01/28 15:01:25;;;;;;;10.13;7.05;;;;;;;;;;5076956;28;20428;-66
2023/01/28 15:03:51;;;;;;;8.10;6.38;;;;;;;;;;5082002;28;20028;-66
2023/01/28 15:06:20;;;;;;;13.23;8.25;;;;;;;;;;5076953;28;20048;-66
2023/01/28 15:08:46;;;;;;;16.00;7.82;;;;;;;;;;5077731;28;20036;-66
2023/01/28 15:11:23;;;;;;;14.18;7.90;;;;;;;;;;5075317;28;20036;-66
2023/01/28 15:13:54;;;;;;;11.90;7.80;;;;;;;;;;5080323;28;20114;-66
2023/01/28 15:16:23;;;;;;;9.43;7.20;;;;;;;;;;5079852;28;20036;-66
2023/01/28 15:18:52;;;;;;;9.75;7.20;;;;;;;;;;5078795;28;20062;-66
2023/01/28 15:21:20;;;;;;;12.85;8.43;;;;;;;;;;5076314;28;20055;-66
2023/01/28 15:23:50;;;;;;;11.93;8.05;;;;;;;;;;5079008;28;20040;-66
2023/01/28 15:26:19;;;;;;;14.02;8.15;;;;;;;;;;5077593;28;20054;-66